createdAt,value
2023-03-12T00:01:20.660Z,99648.75
2023-03-12T00:03:50.558Z,99648.08
2023-03-12T00:06:20.626Z,99648.95
2023-03-12T00:08:49.084Z,99651.52
2023-03-12T00:11:20.974Z,99646.59
2023-03-12T00:13:52.212Z,99642.50
2023-03-12T00:16:21.974Z,99643.20
2023-03-12T00:18:53.019Z,99645.45
2023-03-12T00:21:22.378Z,99639.79
2023-03-12T00:23:53.011Z,99637.89
2023-03-12T00:26:22.229Z,99637.02
2023-03-12T00:28:51.299Z,99638.05
2023-03-12T00:31:27.586Z,99633.94
2023-03-12T00:33:56.669Z,99635.98
2023-03-12T00:36:27.944Z,99635.80
2023-03-12T00:39:00.265Z,99633.75
2023-03-12T00:41:30.379Z,99640.25
2023-03-12T00:43:58.914Z,99644.85
2023-03-12T00:46:27.393Z,99640.90
2023-03-12T00:48:55.744Z,99642.04
2023-03-12T00:51:24.120Z,99639.65
2023-03-12T00:53:53.198Z,99640.15
2023-03-12T00:56:21.592Z,99641.55
2023-03-12T00:58:49.918Z,99640.71
2023-03-12T01:01:18.320Z,99642.10
2023-03-12T01:03:47.385Z,99641.27
2023-03-12T01:06:15.763Z,99642.77
2023-03-12T01:08:44.163Z,99639.55
2023-03-12T01:11:17.882Z,99639.71
2023-03-12T01:13:46.853Z,99642.30
2023-03-12T01:16:15.522Z,99645.07
2023-03-12T01:18:43.976Z,99643.56
2023-03-12T01:21:12.368Z,99645.11
2023-03-12T01:23:40.712Z,99649.05
2023-03-12T01:26:09.048Z,99649.76
2023-03-12T01:28:37.470Z,99648.21
2023-03-12T01:31:14.055Z,99648.04
2023-03-12T01:33:42.951Z,99648.73
2023-03-12T01:36:25.582Z,99645.30
2023-03-12T01:38:57.496Z,99645.64
2023-03-12T01:41:28.899Z,99643.95
2023-03-12T01:43:57.375Z,99644.14
2023-03-12T01:46:43.254Z,99645.36
2023-03-12T01:49:15.841Z,99645.19
2023-03-12T01:51:57.832Z,99650.69
2023-03-12T01:54:39.856Z,99651.36
2023-03-12T01:57:21.225Z,99653.25
2023-03-12T01:59:55.378Z,99656.20
2023-03-12T02:02:28.679Z,99653.25
2023-03-12T02:05:14.668Z,99657.38
2023-03-12T02:07:42.923Z,99659.61
2023-03-12T02:10:11.689Z,99660.33
2023-03-12T02:12:39.999Z,99663.41
2023-03-12T02:15:09.680Z,99665.48
2023-03-12T02:17:39.514Z,99666.69
2023-03-12T02:20:29.597Z,99670.77
2023-03-12T02:23:17.033Z,99668.89
2023-03-12T02:25:51.687Z,99665.58
2023-03-12T02:28:25.288Z,99666.41
2023-03-12T02:31:00.385Z,99666.75
2023-03-12T02:33:28.890Z,99669.77
2023-03-12T02:35:57.280Z,99673.04
2023-03-12T02:38:40.027Z,99670.95
2023-03-12T02:41:36.389Z,99676.63
2023-03-12T02:44:23.084Z,99679.00
2023-03-12T02:46:55.286Z,99677.80
2023-03-12T02:49:27.836Z,99681.20
2023-03-12T02:51:56.702Z,99678.10
2023-03-12T02:54:26.295Z,99680.66
2023-03-12T02:56:54.874Z,99684.20
2023-03-12T02:59:26.630Z,99684.86
2023-03-12T03:01:58.828Z,99684.15
2023-03-12T03:04:29.672Z,99688.42
2023-03-12T03:06:58.108Z,99687.73
2023-03-12T03:09:26.597Z,99694.77
2023-03-12T03:11:54.917Z,99695.65
2023-03-12T03:14:23.547Z,99699.46
2023-03-12T03:16:51.964Z,99702.07
2023-03-12T03:19:20.327Z,99704.50
2023-03-12T03:21:48.656Z,99702.30
2023-03-12T03:24:17.145Z,99710.27
2023-03-12T03:26:45.560Z,99712.40
2023-03-12T03:29:14.448Z,99710.76
2023-03-12T03:31:43.048Z,99715.31
2023-03-12T03:34:12.567Z,99716.06
2023-03-12T03:36:40.870Z,99719.75
2023-03-12T03:39:09.278Z,99717.06
2023-03-12T03:41:37.626Z,99721.72
2023-03-12T03:44:07.867Z,99723.99
2023-03-12T03:46:36.423Z,99729.50
2023-03-12T03:49:04.914Z,99729.70
2023-03-12T03:51:34.378Z,99730.77
2023-03-12T03:54:02.882Z,99731.48
2023-03-12T03:56:31.318Z,99733.02
2023-03-12T03:58:59.782Z,99731.67
2023-03-12T04:01:29.083Z,99728.28
2023-03-12T04:03:58.880Z,99733.30
2023-03-12T04:06:27.704Z,99731.27
2023-03-12T04:08:57.490Z,99731.98
2023-03-12T04:11:26.458Z,99736.77
2023-03-12T04:13:54.860Z,99734.05
2023-03-12T04:16:23.333Z,99731.81
2023-03-12T04:18:51.761Z,99736.48
2023-03-12T04:21:20.553Z,99736.33
2023-03-12T04:23:48.878Z,99741.64
2023-03-12T04:26:17.501Z,99744.93
2023-03-12T04:28:45.936Z,99747.84
2023-03-12T04:31:14.378Z,99750.77
2023-03-12T04:33:42.791Z,99755.35
2023-03-12T04:36:14.662Z,99762.35
2023-03-12T04:38:43.013Z,99767.09
2023-03-12T04:41:14.277Z,99770.23
2023-03-12T04:43:42.727Z,99768.52
2023-03-12T04:46:11.474Z,99772.98
2023-03-12T04:48:39.856Z,99778.65
2023-03-12T04:51:08.222Z,99774.06
2023-03-12T04:53:37.525Z,99775.96
2023-03-12T04:56:06.401Z,99781.67
2023-03-12T04:58:35.872Z,99780.89
2023-03-12T05:01:05.664Z,99786.62
2023-03-12T05:03:34.062Z,99784.36
2023-03-12T05:06:02.457Z,99792.23
2023-03-12T05:08:30.889Z,99796.34
2023-03-12T05:10:59.254Z,99797.02
2023-03-12T05:13:27.528Z,99803.70
2023-03-12T05:15:55.974Z,99800.79
2023-03-12T05:18:26.394Z,99805.06
2023-03-12T05:21:10.066Z,99807.23
2023-03-12T05:23:39.643Z,99805.92
2023-03-12T05:26:18.280Z,99808.40
2023-03-12T05:28:47.014Z,99808.52
2023-03-12T05:31:15.962Z,99805.57
2023-03-12T05:33:44.950Z,99802.61
2023-03-12T05:36:14.440Z,99806.20
2023-03-12T05:38:42.935Z,99807.88
2023-03-12T05:41:27.856Z,99810.06
2023-03-12T05:43:59.868Z,99814.30
2023-03-12T05:46:28.973Z,99815.59
2023-03-12T05:48:57.451Z,99819.96
2023-03-12T05:51:26.253Z,99820.38
2023-03-12T05:53:54.582Z,99825.60
2023-03-12T05:56:22.886Z,99822.73
2023-03-12T05:58:51.365Z,99818.48
2023-03-12T06:01:28.346Z,99826.05
2023-03-12T06:03:58.213Z,99825.86
2023-03-12T06:06:26.646Z,99830.13
2023-03-12T06:08:55.589Z,99833.57
2023-03-12T06:11:23.996Z,99839.56
2023-03-12T06:13:52.322Z,99844.40
2023-03-12T06:16:24.187Z,99852.64
2023-03-12T06:19:01.745Z,99856.71
2023-03-12T06:21:34.697Z,99856.30
2023-03-12T06:24:03.381Z,99859.52
2023-03-12T06:26:31.735Z,99861.22
2023-03-12T06:29:00.715Z,99862.05
2023-03-12T06:31:29.189Z,99860.86
2023-03-12T06:33:57.638Z,99860.79
2023-03-12T06:36:26.065Z,99861.98
2023-03-12T06:38:57.031Z,99861.55
2023-03-12T06:41:26.198Z,99866.67
2023-03-12T06:43:54.631Z,99866.05
2023-03-12T06:46:25.368Z,99866.70
2023-03-12T06:48:53.765Z,99870.25
2023-03-12T06:51:22.157Z,99870.32
2023-03-12T06:53:50.524Z,99871.21
2023-03-12T06:56:18.912Z,99877.33
2023-03-12T06:58:47.396Z,99882.48
2023-03-12T07:01:15.729Z,99885.41
2023-03-12T07:03:44.144Z,99887.55
2023-03-12T07:06:19.488Z,99893.27
2023-03-12T07:08:48.770Z,99897.20
2023-03-12T07:11:17.822Z,99895.70
2023-03-12T07:13:46.445Z,99899.95
2023-03-12T07:16:15.196Z,99894.81
2023-03-12T07:18:43.708Z,99900.03
2023-03-12T07:21:12.181Z,99904.05
2023-03-12T07:23:40.500Z,99910.05
2023-03-12T07:26:08.797Z,99909.16
2023-03-12T07:28:37.212Z,99906.89
2023-03-12T07:31:06.142Z,99908.69
2023-03-12T07:33:35.139Z,99911.44
2023-03-12T07:36:04.830Z,99911.89
2023-03-12T07:38:33.522Z,99915.98
2023-03-12T07:41:01.889Z,99917.33
2023-03-12T07:43:30.360Z,99920.85
2023-03-12T07:45:58.824Z,99929.19
2023-03-12T07:48:27.476Z,99924.02
2023-03-12T07:50:55.786Z,99923.40
2023-03-12T07:53:24.186Z,99921.45
2023-03-12T07:55:52.747Z,99922.16
2023-03-12T07:58:21.231Z,99921.16
2023-03-12T08:00:50.320Z,99918.41
2023-03-12T08:03:18.973Z,99929.47
2023-03-12T08:05:58.075Z,99920.81
2023-03-12T08:08:27.796Z,99922.14
2023-03-12T08:10:56.733Z,99919.54
2023-03-12T08:13:25.892Z,99930.64
2023-03-12T08:15:54.561Z,99929.60
2023-03-12T08:18:24.744Z,99931.83
2023-03-12T08:20:54.754Z,99934.13
2023-03-12T08:23:23.210Z,99939.65
2023-03-12T08:25:51.543Z,99937.31
2023-03-12T08:28:21.441Z,99938.21
2023-03-12T08:30:55.629Z,99945.36
2023-03-12T08:33:24.084Z,99941.67
2023-03-12T08:35:52.808Z,99942.58
2023-03-12T08:38:21.318Z,99944.34
2023-03-12T08:41:00.501Z,99945.34
2023-03-12T08:43:29.527Z,99950.48
2023-03-12T08:46:01.280Z,99948.18
2023-03-12T08:48:31.753Z,99952.60
2023-03-12T08:51:04.129Z,99953.63
2023-03-12T08:53:34.654Z,99958.60
2023-03-12T08:56:04.844Z,99961.45
2023-03-12T08:58:33.273Z,99961.20
2023-03-12T09:01:01.919Z,99966.21
2023-03-12T09:03:30.307Z,99968.05
2023-03-12T09:06:14.764Z,99970.14
2023-03-12T09:08:44.622Z,99964.02
2023-03-12T09:11:15.729Z,99966.93
2023-03-12T09:14:16.897Z,99965.20
2023-03-12T09:16:32.846Z,99961.48
2023-03-12T09:19:01.256Z,99959.35
2023-03-12T09:21:29.626Z,99962.92
2023-03-12T09:23:58.117Z,99960.77
2023-03-12T09:26:26.470Z,99958.98
2023-03-12T09:28:54.879Z,99962.59
2023-03-12T09:31:23.864Z,99960.65
2023-03-12T09:33:52.550Z,99963.69
2023-03-12T09:36:21.119Z,99963.17
2023-03-12T09:38:49.440Z,99959.33
2023-03-12T09:41:32.024Z,99961.92
2023-03-12T09:44:24.251Z,99961.73
2023-03-12T09:46:57.764Z,99965.88
2023-03-12T09:49:49.870Z,99964.16
2023-03-12T09:52:25.784Z,99961.52
2023-03-12T09:55:15.070Z,99961.10
2023-03-12T09:57:46.351Z,99957.59
2023-03-12T10:00:33.909Z,99958.48
2023-03-12T10:03:57.969Z,99963.21
2023-03-12T10:06:39.019Z,99966.36
2023-03-12T10:09:29.685Z,99959.86
2023-03-12T10:12:20.130Z,99959.38
2023-03-12T10:15:13.031Z,99964.27
2023-03-12T10:18:03.061Z,99959.75
2023-03-12T10:21:07.766Z,99958.59
2023-03-12T10:23:48.055Z,99962.70
2023-03-12T10:26:25.420Z,99960.02
2023-03-12T10:29:00.425Z,99961.17
2023-03-12T10:31:55.166Z,99967.48
2023-03-12T10:34:26.371Z,99967.62
2023-03-12T10:37:02.735Z,99966.23
2023-03-12T10:39:31.091Z,99962.02
2023-03-12T10:42:01.254Z,99965.42
2023-03-12T10:44:30.294Z,99961.45
2023-03-12T10:47:24.797Z,99959.29
2023-03-12T10:49:53.449Z,99955.11
2023-03-12T10:52:23.738Z,99958.77
2023-03-12T10:54:53.614Z,99960.87
2023-03-12T10:57:22.741Z,99953.58
2023-03-12T10:59:51.538Z,99954.56
2023-03-12T11:02:33.275Z,99949.90
2023-03-12T11:05:20.609Z,99954.77
2023-03-12T11:07:50.154Z,99956.98
2023-03-12T11:10:25.795Z,99957.67
2023-03-12T11:13:20.806Z,99959.48
2023-03-12T11:15:51.121Z,99951.83
2023-03-12T11:18:29.160Z,99949.80
2023-03-12T11:21:19.818Z,99948.77
2023-03-12T11:23:57.342Z,99945.29
2023-03-12T11:26:33.654Z,99942.83
2023-03-12T11:29:22.847Z,99937.16
2023-03-12T11:32:18.939Z,99939.77
2023-03-12T11:34:49.554Z,99930.06
2023-03-12T11:37:42.143Z,99922.29
2023-03-12T11:40:35.373Z,99914.52
2023-03-12T11:43:45.854Z,99915.77
2023-03-12T11:46:42.719Z,99920.59
2023-03-12T11:49:32.574Z,99915.27
2023-03-12T11:52:27.418Z,99917.02
2023-03-12T11:55:06.099Z,99915.55
2023-03-12T11:57:53.504Z,99910.55
2023-03-12T12:00:34.091Z,99904.30
2023-03-12T12:03:43.134Z,99916.16
2023-03-12T12:06:38.687Z,99909.38
2023-03-12T12:09:22.119Z,99913.56
2023-03-12T12:11:59.431Z,99909.43
2023-03-12T12:15:03.709Z,99904.93
2023-03-12T12:17:45.571Z,99905.11
2023-03-12T12:20:42.647Z,99908.08
2023-03-12T12:23:49.856Z,99900.08
2023-03-12T12:26:32.974Z,99897.02
2023-03-12T12:29:52.185Z,99893.02
2023-03-12T12:32:33.129Z,99896.55
2023-03-12T12:35:19.781Z,99894.02
2023-03-12T12:37:57.991Z,99895.45
2023-03-12T12:40:42.933Z,99894.65
2023-03-12T12:43:30.562Z,99890.23
2023-03-12T12:46:04.800Z,99893.05
2023-03-12T12:49:09.999Z,99887.86
2023-03-12T12:51:56.180Z,99887.14
2023-03-12T12:54:45.311Z,99883.13
2023-03-12T12:57:41.922Z,99877.29
2023-03-12T13:00:23.137Z,99879.46
2023-03-12T13:02:55.123Z,99875.15
2023-03-12T13:05:36.413Z,99873.48
2023-03-12T13:08:08.742Z,99879.50
2023-03-12T13:10:52.989Z,99877.63
2023-03-12T13:13:27.684Z,99875.02
2023-03-12T13:16:21.248Z,99880.71
2023-03-12T13:19:01.367Z,99877.58
2023-03-12T13:21:58.751Z,99869.52
2023-03-12T13:24:35.538Z,99869.14
2023-03-12T13:27:19.821Z,99861.15
2023-03-12T13:29:55.154Z,99860.70
2023-03-12T13:32:35.397Z,99855.65
2023-03-12T13:35:15.810Z,99853.72
2023-03-12T13:37:47.183Z,99852.37
2023-03-12T13:40:33.699Z,99846.65
2023-03-12T13:43:51.747Z,99846.42
2023-03-12T13:46:59.083Z,99855.77
2023-03-12T13:49:55.196Z,99866.27
2023-03-12T13:52:32.143Z,99865.57
2023-03-12T13:55:19.860Z,99865.76
2023-03-12T13:58:00.805Z,99868.86
2023-03-12T14:00:44.188Z,99872.19
2023-03-12T14:03:29.840Z,99864.27
2023-03-12T14:06:28.777Z,99864.33
2023-03-12T14:09:29.390Z,99862.32
2023-03-12T14:12:13.261Z,99858.31
2023-03-12T14:15:08.603Z,99855.28
2023-03-12T14:17:38.111Z,99857.45
2023-03-12T14:20:21.610Z,99858.55
2023-03-12T14:22:59.170Z,99861.05
2023-03-12T14:25:43.981Z,99855.80
2023-03-12T14:28:24.349Z,99849.67
2023-03-12T14:31:14.321Z,99848.79
2023-03-12T14:34:23.160Z,99845.08
2023-03-12T14:37:12.167Z,99846.66
2023-03-12T14:39:54.315Z,99849.64
2023-03-12T14:42:36.427Z,99855.39
2023-03-12T14:45:16.960Z,99854.55
2023-03-12T14:47:57.632Z,99849.32
2023-03-12T14:50:39.352Z,99845.01
2023-03-12T14:53:25.284Z,99839.70
2023-03-12T14:56:13.588Z,99835.09
2023-03-12T14:58:46.800Z,99837.94
2023-03-12T15:01:31.913Z,99840.23
2023-03-12T15:04:15.236Z,99839.40
2023-03-12T15:06:48.292Z,99842.25
2023-03-12T15:09:28.611Z,99839.35
2023-03-12T15:12:18.210Z,99828.73
2023-03-12T15:14:48.900Z,99822.48
2023-03-12T15:17:21.084Z,99826.62
2023-03-12T15:19:50.442Z,99820.23
2023-03-12T15:22:23.297Z,99818.19
2023-03-12T15:24:52.239Z,99816.84
2023-03-12T15:27:22.397Z,99825.56
2023-03-12T15:29:52.456Z,99829.09
2023-03-12T15:32:24.994Z,99833.04
2023-03-12T15:34:56.546Z,99831.80
2023-03-12T15:37:41.180Z,99834.54
2023-03-12T15:40:28.609Z,99832.89
2023-03-12T15:43:03.094Z,99829.15
2023-03-12T15:45:38.635Z,99826.09
2023-03-12T15:48:26.125Z,99823.96
2023-03-12T15:50:54.642Z,99829.00
2023-03-12T15:56:23.197Z,99828.09
2023-03-12T15:59:23.393Z,99826.77
2023-03-12T16:02:00.637Z,99827.99
2023-03-12T16:04:28.996Z,99826.42
2023-03-12T16:06:57.398Z,99821.30
2023-03-12T16:09:29.539Z,99810.08
2023-03-12T16:11:58.015Z,99788.60
2023-03-12T16:14:33.007Z,99769.20
2023-03-12T16:17:01.574Z,99764.22
2023-03-12T16:19:33.741Z,99764.34
2023-03-12T16:22:02.044Z,99763.95
2023-03-12T16:24:30.365Z,99763.75
2023-03-12T16:26:59.605Z,99766.14
2023-03-12T16:29:34.636Z,99777.69
2023-03-12T16:32:12.178Z,99793.71
2023-03-12T16:34:41.543Z,99785.50
2023-03-12T16:37:13.197Z,99765.52
2023-03-12T16:39:44.224Z,99760.67
2023-03-12T16:42:18.392Z,99766.81
2023-03-12T16:44:47.286Z,99765.69
2023-03-12T16:47:15.718Z,99758.63
2023-03-12T16:49:44.486Z,99757.79
2023-03-12T16:52:28.209Z,99763.09
2023-03-12T16:54:56.912Z,99762.21
2023-03-12T16:57:32.596Z,99758.42
2023-03-12T17:00:07.994Z,99758.95
2023-03-12T17:02:36.439Z,99766.89
2023-03-12T17:05:05.213Z,99776.92
2023-03-12T17:07:33.552Z,99785.96
2023-03-12T17:12:55.713Z,99778.03
2023-03-12T17:15:30.721Z,99770.11
2023-03-12T17:18:03.401Z,99773.41
2023-03-12T17:20:36.189Z,99772.62
2023-03-12T17:23:05.911Z,99776.18
2023-03-12T17:25:38.070Z,99783.95
2023-03-12T17:28:07.620Z,99787.52
2023-03-12T17:30:36.653Z,99785.89
2023-03-12T17:33:16.822Z,99781.78
2023-03-12T17:35:45.798Z,99780.84
2023-03-12T17:38:14.272Z,99784.20
2023-03-12T17:40:43.938Z,99777.20
2023-03-12T17:43:12.563Z,99772.45
2023-03-12T17:45:42.118Z,99773.92
2023-03-12T17:48:11.062Z,99777.85
2023-03-12T17:50:39.634Z,99783.32
2023-03-12T17:53:08.239Z,99783.10
2023-03-12T17:55:37.282Z,99785.41
2023-03-12T17:58:06.190Z,99788.92
2023-03-12T18:00:34.699Z,99790.92
2023-03-12T18:03:03.610Z,99792.72
2023-03-12T18:05:32.152Z,99785.69
2023-03-12T18:08:00.580Z,99781.92
2023-03-12T18:10:28.996Z,99773.40
2023-03-12T18:12:57.321Z,99765.48
2023-03-12T18:15:25.687Z,99762.39
2023-03-12T18:17:56.660Z,99766.41
2023-03-12T18:20:36.195Z,99756.66
2023-03-12T18:23:07.100Z,99749.25
2023-03-12T18:25:37.474Z,99738.80
2023-03-12T18:28:06.260Z,99738.39
2023-03-12T18:30:34.857Z,99742.48
2023-03-12T18:33:03.518Z,99743.42
2023-03-12T18:35:31.948Z,99752.00
2023-03-12T18:38:00.661Z,99750.29
2023-03-12T18:40:29.821Z,99751.91
2023-03-12T18:43:00.006Z,99751.09
2023-03-12T18:45:29.429Z,99753.52
2023-03-12T18:47:57.766Z,99750.77
2023-03-12T18:50:26.174Z,99742.90
2023-03-12T18:52:54.585Z,99741.67
2023-03-12T18:55:22.976Z,99741.67
2023-03-12T18:57:52.061Z,99736.69
2023-03-12T19:00:20.632Z,99729.61
2023-03-12T19:02:49.102Z,99721.70
2023-03-12T19:05:17.560Z,99713.98
2023-03-12T19:07:45.936Z,99709.79
2023-03-12T19:10:15.636Z,99707.27
2023-03-12T19:12:53.581Z,99697.25
2023-03-12T19:15:24.200Z,99689.79
2023-03-12T19:17:54.069Z,99683.35
2023-03-12T19:20:22.665Z,99683.75
2023-03-12T19:22:51.240Z,99684.96
2023-03-12T19:25:20.506Z,99679.77
2023-03-12T19:27:48.917Z,99676.99
2023-03-12T19:30:17.551Z,99681.10
2023-03-12T19:32:45.955Z,99689.07
2023-03-12T19:35:15.333Z,99685.39
2023-03-12T19:37:43.823Z,99691.93
2023-03-12T19:40:13.457Z,99687.78
2023-03-12T19:42:42.031Z,99671.31
2023-03-12T19:45:11.101Z,99661.21
2023-03-12T19:47:40.630Z,99661.35
2023-03-12T19:50:11.373Z,99657.35
2023-03-12T19:52:39.703Z,99652.98
2023-03-12T19:55:09.600Z,99650.54
2023-03-12T19:57:39.489Z,99652.50
2023-03-12T20:00:12.193Z,99658.23
2023-03-12T20:02:42.181Z,99663.31
2023-03-12T20:05:10.764Z,99659.11
2023-03-12T20:07:39.662Z,99655.61
2023-03-12T20:10:12.791Z,99652.47
2023-03-12T20:12:41.730Z,99653.23
2023-03-12T20:15:10.402Z,99661.02
2023-03-12T20:17:38.841Z,99665.67
2023-03-12T20:20:08.921Z,99667.05
2023-03-12T20:22:37.375Z,99672.30
2023-03-12T20:25:06.982Z,99671.02
2023-03-12T20:27:35.536Z,99674.90
2023-03-12T20:30:05.193Z,99672.92
2023-03-12T20:32:33.680Z,99667.89
2023-03-12T20:35:02.112Z,99667.52
2023-03-12T20:37:30.436Z,99665.42
2023-03-12T20:39:58.813Z,99669.06
2023-03-12T20:42:27.197Z,99673.10
2023-03-12T20:44:55.489Z,99678.72
2023-03-12T20:47:24.080Z,99680.02
2023-03-12T20:49:52.488Z,99677.67
2023-03-12T20:52:20.849Z,99680.36
2023-03-12T20:54:49.201Z,99683.44
2023-03-12T20:57:17.614Z,99677.02
2023-03-12T20:59:46.107Z,99676.20
2023-03-12T21:02:15.218Z,99681.27
2023-03-12T21:04:43.865Z,99681.17
2023-03-12T21:07:12.240Z,99680.42
2023-03-12T21:09:40.605Z,99680.02
2023-03-12T21:12:09.019Z,99683.84
2023-03-12T21:14:39.817Z,99680.87
2023-03-12T21:17:13.348Z,99677.64
2023-03-12T21:19:42.094Z,99671.02
2023-03-12T21:22:10.704Z,99670.05
2023-03-12T21:24:39.263Z,99669.77
2023-03-12T21:27:11.299Z,99670.27
2023-03-12T21:29:39.802Z,99664.95
2023-03-12T21:32:08.160Z,99664.42
2023-03-12T21:34:38.451Z,99663.16
2023-03-12T21:37:06.809Z,99665.37
2023-03-12T21:39:35.351Z,99662.04
2023-03-12T21:42:04.093Z,99656.45
2023-03-12T21:44:36.457Z,99655.10
2023-03-12T21:47:05.469Z,99650.79
2023-03-12T21:49:37.677Z,99645.16
2023-03-12T21:52:06.180Z,99648.90
2023-03-12T21:54:35.436Z,99647.66
2023-03-12T21:57:04.956Z,99641.77
2023-03-12T21:59:33.311Z,99642.95
2023-03-12T22:02:01.797Z,99646.58
2023-03-12T22:04:30.420Z,99648.55
2023-03-12T22:06:58.962Z,99643.23
2023-03-12T22:09:27.580Z,99638.60
2023-03-12T22:11:55.955Z,99640.18
2023-03-12T22:14:24.585Z,99644.01
2023-03-12T22:16:52.950Z,99644.80
2023-03-12T22:19:21.572Z,99641.83
2023-03-12T22:21:50.113Z,99636.78
2023-03-12T22:24:18.479Z,99625.89
2023-03-12T22:26:46.968Z,99624.02
2023-03-12T22:29:15.280Z,99617.48
2023-03-12T22:31:43.724Z,99622.54
2023-03-12T22:34:12.100Z,99623.93
2023-03-12T22:36:40.576Z,99616.73
2023-03-12T22:39:08.865Z,99613.66
2023-03-12T22:41:37.182Z,99602.45
2023-03-12T22:44:07.428Z,99606.60
2023-03-12T22:46:36.460Z,99609.86
2023-03-12T22:49:05.432Z,99606.38
2023-03-12T22:51:34.543Z,99610.15
2023-03-12T22:54:02.841Z,99603.01
2023-03-12T22:56:31.205Z,99593.16
2023-03-12T22:58:59.769Z,99594.98
2023-03-12T23:01:28.262Z,99589.46
2023-03-12T23:03:56.746Z,99586.27
2023-03-12T23:06:27.740Z,99589.05
2023-03-12T23:08:56.326Z,99592.48
2023-03-12T23:11:27.992Z,99585.61
2023-03-12T23:13:56.536Z,99581.96
2023-03-12T23:16:26.730Z,99580.33
2023-03-12T23:18:56.602Z,99578.36
2023-03-12T23:21:26.146Z,99574.80
2023-03-12T23:23:54.568Z,99574.67
2023-03-12T23:26:28.336Z,99576.17
2023-03-12T23:28:58.865Z,99574.89
2023-03-12T23:31:29.694Z,99576.27
2023-03-12T23:33:58.560Z,99564.39
2023-03-12T23:36:27.485Z,99560.77
2023-03-12T23:38:56.360Z,99557.02
2023-03-12T23:41:29.545Z,99557.57
2023-03-12T23:43:59.143Z,99549.77
2023-03-12T23:46:27.774Z,99539.39
2023-03-12T23:48:56.595Z,99540.14
2023-03-12T23:51:31.861Z,99539.17
2023-03-12T23:54:07.559Z,99544.99
2023-03-12T23:56:39.126Z,99547.05
2023-03-12T23:59:09.982Z,99549.37
